Time;durP1;ratioP1;P1;durP2;ratioP2;P2;SDS_P1;SDS_P2;PMS_P1;PMS_P2;Temp;Humidity;BMP_temperature;BMP_pressure;BME280_temperature;BME280_humidity;BME280_pressure;Samples;Min_cycle;Max_cycle;Signal;HPM_P1;HPM_P2
2022/01/12 00:06:09;;;;;;;21.63;4.78;;;4.30;99.90;;;;;;19859120;29;20062;-45
2022/01/12 00:16:10;;;;;;;13.25;4.32;;;4.30;99.90;;;;;;19851376;29;20034;-45
2022/01/12 00:26:25;;;;;;;10.90;4.80;;;4.20;99.90;;;;;;19853867;29;20057;-45
2022/01/12 00:36:29;;;;;;;19.10;3.53;;;4.20;99.90;;;;;;19849253;29;20461;-45
2022/01/12 00:46:33;;;;;;;10.80;4.60;;;4.20;99.90;;;;;;19871467;29;20081;-45
2022/01/12 00:56:35;;;;;;;13.15;5.03;;;4.20;99.90;;;;;;19863098;29;20179;-45
2022/01/12 01:06:36;;;;;;;14.35;4.20;;;4.20;99.90;;;;;;19861231;29;20051;-45
2022/01/12 01:26:41;;;;;;;15.00;4.90;;;4.20;99.90;;;;;;19859434;29;20059;-45
2022/01/12 01:36:51;;;;;;;14.45;4.32;;;4.20;99.90;;;;;;19856357;29;20051;-45
2022/01/12 01:57:13;;;;;;;18.42;4.78;;;4.20;99.90;;;;;;19861358;29;20526;-45
2022/01/12 02:07:15;;;;;;;16.67;6.60;;;4.20;99.90;;;;;;19857268;29;20192;-45
2022/01/12 02:17:20;;;;;;;15.52;4.38;;;4.20;99.90;;;;;;19855259;29;20797;-45
2022/01/12 02:58:21;;;;;;;19.55;5.30;;;4.30;99.90;;;;;;19852123;29;20515;-45
2022/01/12 03:08:24;;;;;;;16.33;5.57;;;4.40;99.90;;;;;;19851386;29;20507;-45
2022/01/12 03:18:25;;;;;;;20.88;7.60;;;4.30;99.90;;;;;;19849490;29;20552;-45
2022/01/12 03:28:27;;;;;;;19.25;5.50;;;4.40;99.90;;;;;;19852418;29;20058;-45
2022/01/12 03:38:28;;;;;;;23.42;6.93;;;4.50;99.90;;;;;;19857297;29;20053;-45
2022/01/12 03:48:29;;;;;;;19.92;6.43;;;4.50;99.90;;;;;;19854617;29;20059;-45
2022/01/12 03:58:31;;;;;;;25.88;6.63;;;4.50;99.90;;;;;;19848959;29;20566;-45
2022/01/12 04:08:32;;;;;;;20.35;6.47;;;4.50;99.90;;;;;;19855501;29;20054;-45
2022/01/12 04:18:34;;;;;;;22.60;6.25;;;4.50;99.90;;;;;;19865431;29;20050;-45
2022/01/12 04:28:37;;;;;;;22.98;7.25;;;4.60;99.90;;;;;;19867214;29;20555;-45
2022/01/12 04:38:39;;;;;;;24.58;7.28;;;4.60;99.90;;;;;;19865425;29;20070;-45
2022/01/12 04:58:51;;;;;;;25.38;6.13;;;4.50;99.90;;;;;;19861702;29;20680;-45
2022/01/12 05:09:07;;;;;;;11.52;4.97;;;4.40;99.90;;;;;;19860863;29;20077;-45
2022/01/12 05:19:08;;;;;;;21.93;5.53;;;4.40;99.90;;;;;;19862905;29;20062;-45
2022/01/12 05:29:09;;;;;;;11.80;4.43;;;4.30;99.90;;;;;;19859802;29;20047;-45
2022/01/12 05:39:11;;;;;;;13.55;4.20;;;4.30;99.90;;;;;;19862651;29;20050;-45
2022/01/12 05:59:33;;;;;;;15.25;4.22;;;4.30;99.90;;;;;;19858952;29;20049;-45
2022/01/12 06:09:34;;;;;;;14.80;5.28;;;4.30;99.90;;;;;;19861947;29;20051;-45
2022/01/12 06:19:36;;;;;;;11.60;5.70;;;4.30;99.90;;;;;;19865249;29;20038;-45
2022/01/12 06:29:51;;;;;;;10.73;4.53;;;4.30;99.90;;;;;;19857202;29;20065;-45
2022/01/12 06:39:52;;;;;;;12.45;3.38;;;4.40;99.90;;;;;;19868062;29;20055;-45
2022/01/12 06:49:53;;;;;;;10.95;3.35;;;4.40;99.90;;;;;;19845643;29;20436;-45
2022/01/12 06:59:55;;;;;;;11.60;3.30;;;4.40;99.90;;;;;;19865179;29;20038;-45
2022/01/12 07:09:56;;;;;;;15.80;3.50;;;4.40;99.90;;;;;;19867509;29;20038;-45
2022/01/12 07:19:57;;;;;;;8.57;3.60;;;4.50;99.90;;;;;;19867265;29;20046;-45
2022/01/12 07:29:58;;;;;;;11.45;3.95;;;4.50;99.90;;;;;;19860688;29;20061;-45
2022/01/12 07:39:59;;;;;;;10.60;3.15;;;4.50;99.90;;;;;;19865664;29;20043;-45
2022/01/12 07:50:03;;;;;;;11.73;3.15;;;4.50;99.90;;;;;;19883741;29;20132;-45
2022/01/12 08:00:05;;;;;;;9.10;3.55;;;4.60;99.90;;;;;;19882243;29;20055;-45
2022/01/12 08:10:11;;;;;;;10.80;2.43;;;4.60;99.90;;;;;;19885572;29;20047;-45
2022/01/12 08:20:15;;;;;;;9.05;3.10;;;4.60;99.90;;;;;;19881017;29;20070;-45
2022/01/12 08:30:16;;;;;;;6.30;2.10;;;4.70;99.90;;;;;;19879621;29;20544;-45
2022/01/12 08:40:19;;;;;;;6.40;2.13;;;4.80;99.90;;;;;;19881667;29;20423;-45
2022/01/12 08:50:21;;;;;;;5.07;1.80;;;4.80;99.90;;;;;;19875274;29;20137;-45
2022/01/12 09:00:22;;;;;;;5.97;1.83;;;4.80;99.90;;;;;;19873953;29;20047;-45
2022/01/12 09:10:24;;;;;;;11.98;2.47;;;4.80;99.90;;;;;;19877846;29;20062;-45
2022/01/12 09:20:25;;;;;;;7.15;1.88;;;4.90;99.90;;;;;;19877005;29;20042;-45
2022/01/12 09:30:27;;;;;;;10.02;2.47;;;4.90;99.90;;;;;;19878116;29;21639;-45
2022/01/12 09:40:28;;;;;;;7.25;2.33;;;5.00;99.90;;;;;;19884875;29;20045;-45
2022/01/12 09:50:31;;;;;;;9.68;2.00;;;5.00;99.90;;;;;;19856439;29;20472;-45
2022/01/12 10:00:33;;;;;;;9.45;1.90;;;5.00;99.90;;;;;;19870532;29;20058;-45
2022/01/12 10:10:34;;;;;;;7.20;2.00;;;5.10;99.90;;;;;;19874124;29;20054;-45
2022/01/12 10:20:44;;;;;;;9.70;2.78;;;5.00;99.90;;;;;;19865928;29;20486;-45
2022/01/12 10:31:03;;;;;;;9.43;2.10;;;5.00;99.90;;;;;;19871633;29;20408;-45
2022/01/12 10:41:05;;;;;;;11.20;2.40;;;5.10;99.90;;;;;;19864455;29;20416;-45
2022/01/12 10:51:07;;;;;;;8.75;2.75;;;5.10;99.90;;;;;;19866090;29;20574;-45
2022/01/12 11:01:11;;;;;;;11.32;3.22;;;5.30;99.90;;;;;;19866746;29;20503;-45
2022/01/12 11:11:12;;;;;;;16.27;2.90;;;5.30;99.90;;;;;;19835396;29;20070;-45
2022/01/12 11:21:23;;;;;;;10.95;2.60;;;5.30;99.90;;;;;;19866445;29;20062;-45
2022/01/12 11:31:42;;;;;;;13.88;2.97;;;5.20;99.90;;;;;;19861673;29;20042;-45
2022/01/12 11:41:47;;;;;;;17.15;3.97;;;5.20;99.90;;;;;;19888088;29;20078;-45
2022/01/12 11:51:48;;;;;;;17.80;3.97;;;5.30;99.90;;;;;;19881446;29;20051;-45
2022/01/12 12:01:52;;;;;;;13.55;4.22;;;5.50;99.90;;;;;;19873852;29;20062;-45
2022/01/12 12:11:53;;;;;;;10.23;4.50;;;5.60;99.90;;;;;;19824050;29;20054;-45
2022/01/12 12:21:54;;;;;;;10.00;3.80;;;5.60;99.90;;;;;;19861350;29;20419;-45
2022/01/12 12:31:56;;;;;;;23.85;4.43;;;5.70;99.90;;;;;;19870959;29;20047;-44
2022/01/12 12:41:59;;;;;;;10.95;4.22;;;5.60;99.90;;;;;;19882123;29;20047;-45
2022/01/12 12:52:04;;;;;;;19.25;4.35;;;5.70;99.90;;;;;;19876664;29;20549;-45
2022/01/12 13:02:12;;;;;;;14.40;4.32;;;5.70;99.90;;;;;;19860063;29;20411;-45
2022/01/12 13:12:13;;;;;;;16.05;5.18;;;5.70;99.90;;;;;;19873430;29;20042;-45
2022/01/12 13:22:30;;;;;;;16.98;4.82;;;5.70;99.90;;;;;;19828009;29;20050;-45
2022/01/12 13:32:31;;;;;;;13.23;4.05;;;5.70;99.90;;;;;;19874829;29;20062;-45
2022/01/12 13:42:56;;;;;;;17.33;4.50;;;5.70;99.90;;;;;;19875833;29;20046;-45
2022/01/12 13:52:57;;;;;;;13.57;4.03;;;5.70;99.90;;;;;;19875334;29;20146;-45
2022/01/12 14:02:58;;;;;;;10.57;3.45;;;5.60;99.90;;;;;;19881878;29;20063;-45
2022/01/12 14:13:01;;;;;;;12.05;3.30;;;5.50;99.90;;;;;;19880917;29;20194;-45
2022/01/12 14:23:08;;;;;;;9.93;3.00;;;5.50;99.90;;;;;;19890029;29;20043;-45
2022/01/12 14:33:10;;;;;;;10.70;2.53;;;5.40;99.90;;;;;;19889588;29;20054;-45
2022/01/12 14:43:12;;;;;;;13.38;4.18;;;5.50;99.90;;;;;;19886651;29;20055;-45
2022/01/12 14:53:17;;;;;;;13.75;3.42;;;5.40;99.90;;;;;;19878387;29;20684;-45
2022/01/12 15:03:19;;;;;;;14.38;3.92;;;5.30;99.90;;;;;;19861308;29;20061;-45
2022/01/12 15:13:27;;;;;;;15.07;2.65;;;5.30;99.90;;;;;;19879515;29;20180;-45
2022/01/12 15:23:28;;;;;;;10.63;2.28;;;5.30;99.90;;;;;;19878952;29;20059;-45
2022/01/12 15:33:29;;;;;;;12.82;4.22;;;5.30;99.90;;;;;;19866403;29;20566;-45
2022/01/12 15:43:30;;;;;;;12.68;3.00;;;5.20;99.90;;;;;;19867346;29;20070;-45
2022/01/12 15:53:31;;;;;;;12.93;2.47;;;5.20;99.90;;;;;;19864963;29;20404;-45
2022/01/12 16:03:33;;;;;;;13.93;2.78;;;5.10;99.90;;;;;;19869533;29;20527;-45
2022/01/12 16:13:35;;;;;;;9.43;3.25;;;5.10;99.90;;;;;;19871530;29;20035;-45
2022/01/12 16:23:36;;;;;;;10.35;3.67;;;5.10;99.90;;;;;;19873154;29;20349;-45
2022/01/12 16:33:37;;;;;;;18.10;3.40;;;5.00;99.90;;;;;;19868436;29;20703;-45
2022/01/12 16:43:38;;;;;;;16.92;4.05;;;5.20;99.90;;;;;;19876110;29;20054;-45
2022/01/12 16:53:40;;;;;;;19.83;4.38;;;5.30;99.90;;;;;;19864120;29;20055;-45
2022/01/12 17:03:45;;;;;;;15.82;3.88;;;5.30;99.90;;;;;;19889172;29;20621;-45
2022/01/12 17:13:49;;;;;;;25.15;5.85;;;5.30;99.90;;;;;;19875262;29;20419;-45
2022/01/12 17:23:56;;;;;;;15.88;4.97;;;5.30;99.90;;;;;;19870155;29;20054;-45
2022/01/12 17:33:59;;;;;;;13.52;3.97;;;5.40;99.90;;;;;;19831788;29;20109;-45
2022/01/12 17:44:00;;;;;;;19.05;4.28;;;5.40;99.90;;;;;;19871463;29;20366;-45
2022/01/12 17:54:02;;;;;;;21.80;4.28;;;5.40;99.90;;;;;;19863492;29;20432;-45
2022/01/12 18:04:03;;;;;;;17.02;4.10;;;5.40;99.90;;;;;;19868819;29;20535;-45
2022/01/12 18:14:04;;;;;;;18.75;5.13;;;5.40;99.90;;;;;;19869087;29;20049;-45
2022/01/12 18:24:05;;;;;;;15.88;6.03;;;5.40;99.90;;;;;;19865890;29;20051;-45
2022/01/12 18:34:06;;;;;;;18.95;5.22;;;5.40;99.90;;;;;;19875057;29;20077;-45
2022/01/12 18:44:08;;;;;;;17.63;4.30;;;5.30;99.90;;;;;;19893321;29;20047;-45
2022/01/12 18:54:09;;;;;;;20.00;6.57;;;5.30;99.90;;;;;;19888001;29;20736;-45
2022/01/12 19:04:11;;;;;;;22.70;7.25;;;5.20;99.90;;;;;;19885083;29;20137;-45
2022/01/12 19:14:14;;;;;;;24.90;7.30;;;5.20;99.90;;;;;;19892089;29;20039;-45
2022/01/12 19:24:16;;;;;;;18.23;5.13;;;5.10;99.90;;;;;;19894900;29;20058;-45
2022/01/12 19:34:17;;;;;;;13.52;4.07;;;5.10;99.90;;;;;;19882194;29;20567;-45
2022/01/12 19:44:19;;;;;;;18.08;4.80;;;5.00;99.90;;;;;;19891312;29;20441;-45
2022/01/12 19:54:40;;;;;;;20.35;5.47;;;5.00;99.90;;;;;;19897887;29;20065;-45
2022/01/12 20:04:41;;;;;;;22.80;4.32;;;4.90;99.90;;;;;;19897826;29;20034;-45
2022/01/12 20:14:47;;;;;;;16.58;4.68;;;4.90;99.90;;;;;;19891625;29;20054;-45
2022/01/12 20:24:54;;;;;;;17.33;4.47;;;4.90;99.90;;;;;;19886996;29;20051;-45
2022/01/12 20:35:05;;;;;;;17.73;5.07;;;4.90;99.90;;;;;;19886657;29;20047;-45
2022/01/12 20:45:10;;;;;;;12.45;3.70;;;4.80;99.90;;;;;;19890886;29;20053;-46
2022/01/12 20:55:11;;;;;;;15.43;4.93;;;4.70;99.90;;;;;;19887872;29;20077;-45
2022/01/12 21:05:12;;;;;;;11.05;3.70;;;4.70;99.90;;;;;;19907892;29;20050;-45
2022/01/12 21:15:14;;;;;;;11.55;2.50;;;4.60;99.90;;;;;;19907447;29;20078;-46
2022/01/12 21:25:18;;;;;;;9.35;3.13;;;4.50;99.90;;;;;;19891986;29;20335;-45
2022/01/12 21:35:27;;;;;;;7.43;2.72;;;4.30;99.90;;;;;;19907886;29;20074;-45
2022/01/12 21:45:29;;;;;;;18.38;5.38;;;4.30;99.90;;;;;;19869138;29;20062;-45
2022/01/12 21:55:30;;;;;;;16.77;3.67;;;4.20;99.90;;;;;;19866400;29;20059;-45
2022/01/12 22:05:32;;;;;;;7.28;2.10;;;4.20;99.90;;;;;;19854895;29;20070;-45
2022/01/12 22:15:33;;;;;;;6.13;3.13;;;4.20;99.90;;;;;;19862609;29;20046;-45
2022/01/12 22:25:35;;;;;;;20.25;3.35;;;4.20;99.90;;;;;;19858290;29;20054;-45
2022/01/12 22:35:36;;;;;;;11.35;2.92;;;4.00;99.90;;;;;;19864994;29;20035;-45
2022/01/12 22:45:39;;;;;;;8.93;2.58;;;4.00;99.90;;;;;;19867035;29;20043;-45
2022/01/12 22:55:41;;;;;;;13.60;3.90;;;4.00;99.90;;;;;;19876526;29;20086;-45
2022/01/12 23:05:42;;;;;;;12.82;2.17;;;4.00;99.90;;;;;;19863485;29;20261;-45
2022/01/12 23:15:44;;;;;;;6.63;2.33;;;4.00;99.90;;;;;;19870098;29;20054;-45
2022/01/12 23:25:48;;;;;;;10.05;2.15;;;3.90;99.90;;;;;;19864527;29;20476;-45
2022/01/12 23:56:47;;;;;;;6.85;2.58;;;3.80;99.90;;;;;;19865167;29;20083;-45
